createdAt,value
2022-07-26T00:00:17.842Z,2.03
2022-07-26T00:02:47.619Z,2.20
2022-07-26T00:05:16.533Z,1.88
2022-07-26T00:07:44.259Z,2.00
2022-07-26T00:10:12.014Z,1.60
2022-07-26T00:12:39.892Z,2.13
2022-07-26T00:15:08.728Z,1.70
2022-07-26T00:17:36.548Z,1.83
2022-07-26T00:20:06.904Z,1.88
2022-07-26T00:22:39.724Z,2.00
2022-07-26T00:25:08.650Z,1.77
2022-07-26T00:27:37.588Z,2.03
2022-07-26T00:30:06.612Z,1.77
2022-07-26T00:32:34.347Z,1.77
2022-07-26T00:35:02.067Z,1.70
2022-07-26T00:37:31.129Z,2.00
2022-07-26T00:39:58.819Z,1.60
2022-07-26T00:42:26.552Z,1.67
2022-07-26T00:44:54.260Z,1.50
2022-07-26T00:47:21.998Z,1.67
2022-07-26T00:49:49.697Z,1.90
2022-07-26T00:52:17.588Z,1.60
2022-07-26T00:54:46.705Z,1.55
2022-07-26T00:57:14.971Z,1.60
2022-07-26T00:59:42.752Z,1.60
2022-07-26T01:02:10.723Z,1.50
2022-07-26T01:04:38.517Z,1.42
2022-07-26T01:07:15.050Z,1.60
2022-07-26T01:09:43.376Z,1.67
2022-07-26T01:12:12.801Z,1.40
2022-07-26T01:14:43.345Z,1.40
2022-07-26T01:17:11.104Z,1.48
2022-07-26T01:19:38.815Z,1.45
2022-07-26T01:22:12.435Z,1.33
2022-07-26T01:24:41.962Z,1.30
2022-07-26T01:27:09.708Z,1.30
2022-07-26T01:29:37.525Z,1.60
2022-07-26T01:32:05.599Z,1.13
2022-07-26T01:34:33.292Z,1.40
2022-07-26T01:37:01.058Z,1.45
2022-07-26T01:39:30.100Z,1.30
2022-07-26T01:41:57.837Z,1.53
2022-07-26T01:44:25.605Z,1.40
2022-07-26T01:46:53.362Z,1.40
2022-07-26T01:49:21.120Z,1.30
2022-07-26T01:51:48.905Z,1.50
2022-07-26T01:54:22.339Z,1.25
2022-07-26T01:56:53.643Z,1.10
2022-07-26T01:59:21.339Z,1.00
2022-07-26T02:01:49.142Z,1.55
2022-07-26T02:04:30.844Z,1.25
2022-07-26T02:06:58.901Z,1.45
2022-07-26T02:09:26.598Z,1.15
2022-07-26T02:11:58.446Z,1.63
2022-07-26T02:14:28.023Z,1.00
2022-07-26T02:16:59.909Z,1.58
2022-07-26T02:19:28.095Z,1.48
2022-07-26T02:21:55.849Z,1.20
2022-07-26T02:24:23.592Z,1.38
2022-07-26T02:26:51.317Z,1.35
2022-07-26T02:29:20.360Z,1.67
2022-07-26T02:31:48.257Z,1.20
2022-07-26T02:34:16.987Z,1.30
2022-07-26T02:36:44.870Z,1.40
2022-07-26T02:39:12.673Z,1.17
2022-07-26T02:41:40.486Z,1.10
2022-07-26T02:44:09.014Z,1.33
2022-07-26T02:46:38.558Z,1.50
2022-07-26T02:49:06.414Z,1.30
2022-07-26T02:51:34.453Z,1.30
2022-07-26T02:54:02.178Z,1.50
2022-07-26T02:56:29.913Z,1.30
2022-07-26T02:58:57.629Z,1.30
2022-07-26T03:01:25.383Z,1.60
2022-07-26T03:03:54.489Z,1.17
2022-07-26T03:06:22.204Z,1.20
2022-07-26T03:08:50.137Z,1.50
2022-07-26T03:11:17.933Z,1.10
2022-07-26T03:13:45.648Z,1.30
2022-07-26T03:16:13.442Z,1.20
2022-07-26T03:18:41.194Z,1.40
2022-07-26T03:21:10.432Z,1.30
2022-07-26T03:23:38.130Z,1.58
2022-07-26T03:26:05.969Z,1.17
2022-07-26T03:28:34.373Z,1.55
2022-07-26T03:31:02.220Z,1.42
2022-07-26T03:33:30.227Z,1.20
2022-07-26T03:35:57.987Z,1.30
2022-07-26T03:38:27.097Z,1.40
2022-07-26T03:40:54.834Z,1.70
2022-07-26T03:43:23.395Z,1.40
2022-07-26T03:45:51.348Z,1.30
2022-07-26T03:48:22.400Z,1.15
2022-07-26T03:50:50.114Z,1.27
2022-07-26T03:53:17.841Z,1.40
2022-07-26T03:56:04.451Z,1.23
2022-07-26T03:58:32.203Z,0.90
2022-07-26T04:01:00.006Z,1.60
2022-07-26T04:03:27.820Z,1.33
2022-07-26T04:05:56.061Z,1.30
2022-07-26T04:08:23.881Z,1.48
2022-07-26T04:10:52.945Z,1.30
2022-07-26T04:13:20.777Z,1.37
2022-07-26T04:15:48.607Z,1.20
2022-07-26T04:18:16.354Z,1.20
2022-07-26T04:20:44.220Z,1.25
2022-07-26T04:23:12.466Z,1.25
2022-07-26T04:25:41.362Z,1.20
2022-07-26T04:28:10.739Z,1.23
2022-07-26T04:30:38.523Z,1.30
2022-07-26T04:33:06.314Z,1.65
2022-07-26T04:35:34.068Z,1.40
2022-07-26T04:38:02.034Z,1.20
2022-07-26T04:40:33.413Z,1.40
2022-07-26T04:43:01.267Z,1.30
2022-07-26T04:45:30.382Z,1.33
2022-07-26T04:47:58.161Z,1.50
2022-07-26T04:50:25.985Z,1.10
2022-07-26T04:52:53.717Z,1.30
2022-07-26T04:55:21.519Z,1.40
2022-07-26T04:57:49.552Z,1.33
2022-07-26T05:00:23.000Z,1.70
2022-07-26T05:02:54.594Z,1.50
2022-07-26T05:05:22.924Z,1.50
2022-07-26T05:07:52.527Z,1.73
2022-07-26T05:10:21.621Z,1.30
2022-07-26T05:12:49.570Z,1.43
2022-07-26T05:15:17.265Z,1.40
2022-07-26T05:17:45.039Z,1.48
2022-07-26T05:20:15.889Z,1.20
2022-07-26T05:22:43.714Z,1.60
2022-07-26T05:25:11.418Z,1.38
2022-07-26T05:27:40.659Z,1.42
2022-07-26T05:30:09.879Z,1.25
2022-07-26T05:32:37.727Z,1.63
2022-07-26T05:35:06.306Z,2.28
2022-07-26T05:37:35.536Z,1.83
2022-07-26T05:40:03.284Z,2.25
2022-07-26T05:42:31.028Z,2.40
2022-07-26T05:44:58.747Z,2.30
2022-07-26T05:47:26.511Z,2.60
2022-07-26T05:49:55.207Z,2.58
2022-07-26T05:52:23.346Z,3.10
2022-07-26T05:54:52.382Z,2.70
2022-07-26T05:57:20.116Z,2.92
2022-07-26T05:59:47.840Z,3.40
2022-07-26T06:02:15.687Z,3.30
2022-07-26T06:04:43.555Z,3.20
2022-07-26T06:07:15.063Z,3.17
2022-07-26T06:09:42.779Z,2.92
2022-07-26T06:12:11.921Z,3.30
2022-07-26T06:14:39.625Z,3.10
2022-07-26T06:17:07.488Z,3.38
2022-07-26T06:19:35.701Z,3.00
2022-07-26T06:22:03.406Z,3.05
2022-07-26T06:24:31.125Z,3.30
2022-07-26T06:27:04.684Z,3.15
2022-07-26T06:29:34.531Z,3.22
2022-07-26T06:32:02.337Z,3.10
2022-07-26T06:34:30.146Z,3.97
2022-07-26T06:36:57.851Z,4.15
2022-07-26T06:39:25.583Z,4.40
2022-07-26T06:41:53.284Z,4.18
2022-07-26T06:44:21.003Z,4.43
2022-07-26T06:46:50.046Z,4.20
2022-07-26T06:49:22.228Z,4.05
2022-07-26T06:51:50.504Z,3.60
2022-07-26T06:54:18.231Z,3.42
2022-07-26T06:56:45.930Z,3.58
2022-07-26T06:59:13.715Z,3.80
2022-07-26T07:01:57.617Z,3.45
2022-07-26T07:04:29.764Z,3.50
2022-07-26T07:07:02.339Z,3.42
2022-07-26T07:09:33.356Z,3.30
2022-07-26T07:12:08.297Z,3.33
2022-07-26T07:14:38.391Z,3.70
2022-07-26T07:17:10.436Z,3.10
2022-07-26T07:19:42.199Z,3.50
2022-07-26T07:22:12.332Z,3.20
2022-07-26T07:24:40.494Z,3.42
2022-07-26T07:27:08.247Z,3.78
2022-07-26T07:29:35.988Z,3.50
2022-07-26T07:32:03.873Z,3.70
2022-07-26T07:34:31.675Z,3.53
2022-07-26T07:37:01.576Z,3.50
2022-07-26T07:39:34.927Z,2.90
2022-07-26T07:42:06.573Z,3.63
2022-07-26T07:44:34.314Z,3.60
2022-07-26T07:47:02.126Z,3.10
2022-07-26T07:49:30.045Z,3.10
2022-07-26T07:51:57.785Z,3.40
2022-07-26T07:54:26.868Z,3.40
2022-07-26T07:56:56.318Z,3.42
2022-07-26T07:59:24.071Z,3.60
2022-07-26T08:01:51.848Z,3.63
2022-07-26T08:04:19.857Z,3.85
2022-07-26T08:06:50.454Z,4.82
2022-07-26T08:09:19.287Z,4.15
2022-07-26T08:11:50.759Z,3.83
2022-07-26T08:14:19.042Z,4.53
2022-07-26T08:16:47.200Z,4.88
2022-07-26T08:19:15.441Z,4.03
2022-07-26T08:21:46.055Z,4.15
2022-07-26T08:24:14.666Z,4.18
2022-07-26T08:26:42.373Z,4.10
2022-07-26T08:29:11.966Z,4.75
2022-07-26T08:31:40.028Z,4.00
2022-07-26T08:34:07.806Z,4.80
2022-07-26T08:36:35.506Z,4.32
2022-07-26T08:39:03.246Z,4.45
2022-07-26T08:41:31.510Z,4.32
2022-07-26T08:44:06.061Z,4.75
2022-07-26T08:46:35.965Z,5.00
2022-07-26T08:51:31.404Z,4.15
2022-07-26T08:54:05.451Z,4.22
2022-07-26T08:56:34.918Z,4.10
2022-07-26T08:59:05.498Z,4.03
2022-07-26T09:01:34.935Z,3.80
2022-07-26T09:04:30.937Z,3.70
2022-07-26T09:07:01.146Z,3.70
2022-07-26T09:09:28.971Z,3.30
2022-07-26T09:11:56.947Z,4.05
2022-07-26T09:14:24.809Z,3.58
2022-07-26T09:17:00.402Z,3.47
2022-07-26T09:19:28.327Z,3.30
2022-07-26T09:21:57.862Z,3.60
2022-07-26T09:24:32.524Z,3.38
2022-07-26T09:27:00.817Z,2.88
2022-07-26T09:29:29.536Z,3.22
2022-07-26T09:32:12.210Z,3.03
2022-07-26T09:34:52.031Z,2.65
2022-07-26T09:37:20.605Z,2.83
2022-07-26T09:39:55.040Z,3.13
2022-07-26T09:42:29.315Z,3.00
2022-07-26T09:44:57.969Z,2.97
2022-07-26T09:47:36.233Z,2.72
2022-07-26T09:50:14.370Z,3.03
2022-07-26T09:52:42.238Z,2.85
2022-07-26T09:55:13.182Z,2.88
2022-07-26T09:57:40.906Z,3.10
2022-07-26T10:00:09.875Z,2.45
2022-07-26T10:02:38.955Z,2.40
2022-07-26T10:05:07.646Z,2.35
2022-07-26T10:07:35.388Z,2.38
2022-07-26T10:10:04.996Z,2.60
2022-07-26T10:12:33.509Z,2.00
2022-07-26T10:15:01.264Z,1.88
2022-07-26T10:17:49.486Z,1.77
2022-07-26T10:20:45.493Z,2.10
2022-07-26T10:23:38.547Z,2.47
2022-07-26T10:26:07.136Z,2.20
2022-07-26T10:28:38.032Z,1.90
2022-07-26T10:31:38.992Z,2.30
2022-07-26T10:34:08.263Z,2.03
2022-07-26T10:36:36.989Z,2.13
2022-07-26T10:39:10.051Z,2.03
2022-07-26T10:41:39.500Z,1.77
2022-07-26T10:44:21.494Z,1.65
2022-07-26T10:46:56.494Z,1.83
2022-07-26T10:49:30.274Z,1.80
2022-07-26T10:52:16.820Z,2.00
2022-07-26T10:55:11.017Z,1.42
2022-07-26T10:57:39.993Z,1.90
2022-07-26T11:00:26.885Z,1.42
2022-07-26T11:02:58.714Z,1.65
2022-07-26T11:05:31.171Z,1.50
2022-07-26T11:08:08.140Z,1.45
2022-07-26T11:10:36.917Z,1.60
2022-07-26T11:13:10.572Z,1.38
2022-07-26T11:15:39.217Z,1.48
2022-07-26T11:18:11.381Z,1.40
2022-07-26T11:20:40.574Z,1.55
2022-07-26T11:23:21.380Z,1.35
2022-07-26T11:26:02.429Z,1.20
2022-07-26T11:28:30.273Z,1.30
2022-07-26T11:30:58.481Z,1.30
2022-07-26T11:33:38.510Z,1.50
2022-07-26T11:38:48.551Z,1.20
2022-07-26T11:41:16.552Z,1.58
2022-07-26T11:43:44.264Z,1.25
2022-07-26T11:46:12.019Z,1.10
2022-07-26T11:48:40.230Z,1.10
2022-07-26T11:51:13.189Z,1.30
2022-07-26T11:53:40.945Z,1.20
2022-07-26T11:56:27.063Z,1.02
2022-07-26T11:58:56.507Z,1.10
2022-07-26T12:01:25.354Z,1.00
2022-07-26T12:03:54.066Z,1.10
2022-07-26T12:08:46.161Z,0.98
2022-07-26T12:11:15.516Z,0.85
2022-07-26T12:13:55.519Z,1.17
2022-07-26T12:16:37.895Z,1.05
2022-07-26T12:19:05.636Z,1.00
2022-07-26T12:21:43.871Z,1.10
2022-07-26T12:24:14.174Z,0.90
2022-07-26T12:26:42.122Z,0.98
2022-07-26T12:29:33.059Z,0.88
2022-07-26T12:32:10.287Z,0.98
2022-07-26T12:34:40.260Z,0.97
2022-07-26T12:37:17.818Z,0.80
2022-07-26T12:40:02.969Z,0.77
2022-07-26T12:42:33.480Z,0.88
2022-07-26T12:45:02.825Z,1.05
2022-07-26T12:47:30.634Z,0.80
2022-07-26T12:49:58.376Z,0.90
2022-07-26T12:52:26.093Z,0.85
2022-07-26T12:54:54.177Z,0.98
2022-07-26T12:57:23.291Z,0.80
2022-07-26T12:59:51.049Z,0.80
2022-07-26T13:02:18.945Z,1.42
2022-07-26T13:04:46.892Z,0.95
2022-07-26T13:07:14.798Z,0.65
2022-07-26T13:09:42.580Z,0.95
2022-07-26T13:12:10.899Z,0.80
2022-07-26T13:14:40.212Z,0.90
2022-07-26T13:17:08.515Z,1.00
2022-07-26T13:19:36.406Z,1.10
2022-07-26T13:22:04.963Z,1.10
2022-07-26T13:24:33.521Z,1.27
2022-07-26T13:27:01.298Z,1.23
2022-07-26T13:29:29.848Z,0.82
2022-07-26T13:32:00.257Z,1.02
2022-07-26T13:34:33.009Z,1.00
2022-07-26T13:37:02.593Z,0.90
2022-07-26T13:39:36.260Z,1.00
2022-07-26T13:42:04.008Z,0.93
2022-07-26T13:44:31.736Z,0.93
2022-07-26T13:47:02.192Z,0.90
2022-07-26T13:49:30.998Z,1.10
2022-07-26T13:51:58.815Z,0.80
2022-07-26T13:54:27.635Z,1.23
2022-07-26T13:56:55.853Z,0.90
2022-07-26T13:59:23.606Z,0.98
2022-07-26T14:01:51.448Z,1.00
2022-07-26T14:04:20.627Z,1.00
2022-07-26T14:06:48.517Z,0.90
2022-07-26T14:09:16.384Z,0.85
2022-07-26T14:11:44.203Z,0.88
2022-07-26T14:14:12.419Z,0.73
2022-07-26T14:16:40.772Z,1.00
2022-07-26T14:19:08.604Z,0.80
2022-07-26T14:21:46.954Z,0.90
2022-07-26T14:24:18.986Z,0.90
2022-07-26T14:26:48.816Z,0.70
2022-07-26T14:29:16.640Z,0.88
2022-07-26T14:31:45.551Z,1.08
2022-07-26T14:34:14.459Z,0.90
2022-07-26T14:36:43.870Z,0.87
2022-07-26T14:39:11.678Z,0.80
2022-07-26T14:41:39.554Z,0.80
2022-07-26T14:44:07.559Z,1.00
2022-07-26T14:46:35.552Z,1.00
2022-07-26T14:49:03.367Z,0.90
2022-07-26T14:51:31.250Z,0.90
2022-07-26T14:54:00.344Z,0.85
2022-07-26T14:56:28.093Z,0.90
2022-07-26T14:58:55.819Z,0.98
2022-07-26T15:01:23.851Z,1.08
2022-07-26T15:03:51.733Z,0.80
2022-07-26T15:06:19.514Z,0.70
2022-07-26T15:08:47.272Z,0.80
2022-07-26T15:11:16.928Z,0.70
2022-07-26T15:13:44.690Z,0.90
2022-07-26T15:16:13.855Z,1.00
2022-07-26T15:18:41.669Z,0.70
2022-07-26T15:21:09.492Z,0.95
2022-07-26T15:23:39.278Z,0.80
2022-07-26T15:26:07.040Z,0.80
2022-07-26T15:28:36.131Z,0.80
2022-07-26T15:31:03.888Z,1.00
2022-07-26T15:33:32.488Z,0.80
2022-07-26T15:36:03.979Z,0.82
2022-07-26T15:38:33.575Z,1.10
2022-07-26T15:41:01.317Z,1.23
2022-07-26T15:43:48.910Z,0.80
2022-07-26T15:46:19.669Z,1.00
2022-07-26T15:48:49.543Z,0.90
2022-07-26T15:51:17.494Z,0.85
2022-07-26T15:53:46.695Z,0.80
2022-07-26T15:56:14.725Z,0.80
2022-07-26T15:58:42.475Z,0.75
2022-07-26T16:01:12.829Z,0.80
2022-07-26T16:03:41.974Z,0.88
2022-07-26T16:06:09.695Z,1.03
2022-07-26T16:08:52.727Z,0.75
2022-07-26T16:11:25.468Z,0.80
2022-07-26T16:13:53.184Z,0.80
2022-07-26T16:16:30.230Z,0.77
2022-07-26T16:18:59.563Z,1.20
2022-07-26T16:21:27.301Z,1.20
2022-07-26T16:23:55.036Z,0.70
2022-07-26T16:26:23.508Z,0.88
2022-07-26T16:28:51.249Z,1.23
2022-07-26T16:31:19.076Z,1.08
2022-07-26T16:33:46.987Z,0.90
2022-07-26T16:36:17.070Z,1.00
2022-07-26T16:38:44.828Z,1.00
2022-07-26T16:41:12.833Z,0.80
2022-07-26T16:43:40.625Z,1.33
2022-07-26T16:46:08.361Z,0.90
2022-07-26T16:48:36.125Z,1.00
2022-07-26T16:51:04.012Z,1.00
2022-07-26T16:53:33.204Z,0.93
2022-07-26T16:56:00.952Z,0.90
2022-07-26T16:58:28.696Z,0.90
2022-07-26T17:00:56.597Z,1.00
2022-07-26T17:03:24.689Z,1.00
2022-07-26T17:05:52.571Z,1.00
2022-07-26T17:08:20.324Z,0.80
2022-07-26T17:10:49.392Z,0.98
2022-07-26T17:13:17.151Z,0.60
2022-07-26T17:15:44.952Z,0.75
2022-07-26T17:18:13.190Z,0.80
2022-07-26T17:20:41.098Z,0.88
2022-07-26T17:23:09.095Z,1.00
2022-07-26T17:25:36.839Z,0.90
2022-07-26T17:28:06.571Z,1.00
2022-07-26T17:30:34.343Z,0.80
2022-07-26T17:33:02.141Z,1.17
2022-07-26T17:35:29.933Z,1.00
2022-07-26T17:37:57.697Z,0.70
2022-07-26T17:40:25.671Z,1.10
2022-07-26T17:42:53.841Z,0.98
2022-07-26T17:45:23.048Z,1.00
2022-07-26T17:47:50.802Z,0.70
2022-07-26T17:53:06.291Z,0.80
2022-07-26T17:55:34.367Z,0.90
2022-07-26T17:58:02.120Z,0.95
2022-07-26T18:00:31.210Z,0.70
2022-07-26T18:02:58.977Z,1.10
2022-07-26T18:05:34.024Z,0.77
2022-07-26T18:08:03.811Z,0.82
2022-07-26T18:10:31.545Z,0.80
2022-07-26T18:12:59.331Z,0.80
2022-07-26T18:15:27.063Z,0.85
2022-07-26T18:17:56.213Z,0.90
2022-07-26T18:20:24.091Z,1.10
2022-07-26T18:22:53.705Z,1.05
2022-07-26T18:25:21.646Z,0.90
2022-07-26T18:27:49.837Z,0.80
2022-07-26T18:30:17.560Z,0.75
2022-07-26T18:32:45.394Z,0.95
2022-07-26T18:35:14.512Z,0.90
2022-07-26T18:37:42.264Z,0.97
2022-07-26T18:40:10.381Z,1.05
2022-07-26T18:42:38.133Z,1.00
2022-07-26T18:45:06.941Z,1.15
2022-07-26T18:47:34.670Z,0.95
2022-07-26T18:50:02.422Z,0.88
2022-07-26T18:52:32.789Z,1.00
2022-07-26T18:55:02.388Z,0.80
2022-07-26T18:57:30.213Z,1.00
2022-07-26T18:59:57.924Z,0.98
2022-07-26T19:02:25.709Z,0.90
2022-07-26T19:04:53.493Z,0.90
2022-07-26T19:07:21.255Z,0.80
2022-07-26T19:09:52.672Z,1.00
2022-07-26T19:12:24.211Z,0.90
2022-07-26T19:14:51.951Z,0.82
2022-07-26T19:17:20.700Z,1.00
2022-07-26T19:19:48.416Z,0.85
2022-07-26T19:22:16.158Z,0.80
2022-07-26T19:24:43.875Z,1.00
2022-07-26T19:27:14.974Z,0.80
2022-07-26T19:29:42.816Z,0.95
2022-07-26T19:32:10.561Z,1.00
2022-07-26T19:34:38.277Z,1.13
2022-07-26T19:37:06.015Z,0.98
2022-07-26T19:39:33.716Z,1.10
2022-07-26T19:42:01.512Z,1.00
2022-07-26T19:44:30.643Z,1.08
2022-07-26T19:46:58.373Z,1.13
2022-07-26T19:49:26.206Z,0.98
2022-07-26T19:51:54.001Z,1.00
2022-07-26T19:54:22.897Z,0.93
2022-07-26T19:56:50.629Z,1.17
2022-07-26T19:59:23.301Z,1.25
2022-07-26T20:01:56.572Z,1.00
2022-07-26T20:04:26.068Z,1.02
2022-07-26T20:06:53.816Z,1.10
2022-07-26T20:09:21.533Z,1.05
2022-07-26T20:11:51.807Z,1.52
2022-07-26T20:14:19.639Z,1.08
2022-07-26T20:16:48.339Z,0.90
2022-07-26T20:19:19.581Z,0.93
2022-07-26T20:21:47.381Z,1.30
2022-07-26T20:24:15.721Z,1.38
2022-07-26T20:26:43.449Z,1.10
2022-07-26T20:29:12.389Z,0.98
2022-07-26T20:31:40.259Z,1.17
2022-07-26T20:34:07.995Z,1.05
2022-07-26T20:36:37.052Z,1.20
2022-07-26T20:39:05.044Z,1.60
2022-07-26T20:41:33.945Z,1.30
2022-07-26T20:44:01.899Z,1.10
2022-07-26T20:46:29.684Z,1.40
2022-07-26T20:48:57.555Z,1.40
2022-07-26T20:51:25.424Z,1.33
2022-07-26T20:53:54.497Z,1.15
2022-07-26T20:56:22.211Z,1.17
2022-07-26T20:58:49.951Z,1.20
2022-07-26T21:01:17.697Z,1.30
2022-07-26T21:03:45.451Z,1.50
2022-07-26T21:06:13.198Z,1.20
2022-07-26T21:08:41.984Z,1.20
2022-07-26T21:11:11.048Z,1.30
2022-07-26T21:13:38.787Z,1.60
2022-07-26T21:16:09.711Z,1.48
2022-07-26T21:18:38.401Z,1.48
2022-07-26T21:21:06.153Z,1.50
2022-07-26T21:23:33.901Z,1.35
2022-07-26T21:26:01.660Z,1.20
2022-07-26T21:28:30.734Z,1.20
2022-07-26T21:30:58.447Z,1.50
2022-07-26T21:33:26.197Z,1.30
2022-07-26T21:35:53.926Z,1.58
2022-07-26T21:38:21.669Z,1.35
2022-07-26T21:40:49.500Z,1.27
2022-07-26T21:43:17.334Z,1.45
2022-07-26T21:45:46.398Z,1.63
2022-07-26T21:48:14.435Z,1.53
2022-07-26T21:50:45.531Z,1.20
2022-07-26T21:53:13.603Z,1.30
2022-07-26T21:55:41.331Z,1.15
2022-07-26T21:58:09.100Z,1.40
2022-07-26T22:00:37.166Z,1.40
2022-07-26T22:03:06.267Z,1.10
2022-07-26T22:05:38.104Z,1.27
2022-07-26T22:08:09.873Z,1.20
2022-07-26T22:10:43.945Z,1.38
2022-07-26T22:13:12.503Z,1.38
2022-07-26T22:15:40.210Z,1.30
2022-07-26T22:18:09.964Z,1.08
2022-07-26T22:20:37.922Z,1.50
2022-07-26T22:23:07.122Z,1.27
2022-07-26T22:25:35.244Z,1.10
2022-07-26T22:28:03.065Z,1.10
2022-07-26T22:30:30.818Z,1.35
2022-07-26T22:32:58.901Z,0.90
2022-07-26T22:35:33.501Z,1.30
2022-07-26T22:38:04.941Z,1.23
2022-07-26T22:40:32.926Z,1.13
2022-07-26T22:43:00.708Z,1.20
2022-07-26T22:45:28.831Z,1.15
2022-07-26T22:47:56.935Z,1.30
2022-07-26T22:50:25.116Z,1.30
2022-07-26T22:52:54.253Z,1.15
2022-07-26T22:55:21.993Z,1.23
2022-07-26T22:57:49.741Z,1.30
2022-07-26T23:00:18.256Z,1.60
2022-07-26T23:02:46.120Z,1.23
2022-07-26T23:07:44.826Z,1.00
2022-07-26T23:10:17.358Z,1.17
2022-07-26T23:12:45.105Z,1.30
2022-07-26T23:15:12.997Z,1.10
2022-07-26T23:17:40.750Z,1.10
2022-07-26T23:20:10.131Z,1.08
2022-07-26T23:22:38.283Z,1.27
2022-07-26T23:25:06.919Z,1.10
2022-07-26T23:27:36.089Z,1.30
2022-07-26T23:30:03.851Z,1.00
2022-07-26T23:32:31.605Z,1.10
2022-07-26T23:34:59.315Z,1.25
2022-07-26T23:37:27.635Z,1.10
2022-07-26T23:39:55.350Z,1.13
2022-07-26T23:42:23.092Z,1.27
2022-07-26T23:44:52.157Z,1.08
2022-07-26T23:47:19.918Z,1.25
2022-07-26T23:49:47.632Z,1.30
2022-07-26T23:52:15.470Z,1.17
2022-07-26T23:54:43.197Z,1.40
2022-07-26T23:57:10.927Z,1.38
2022-07-26T23:59:38.656Z,1.30
